createdAt,value
2022-10-12T00:02:20.031Z,15.57
2022-10-12T00:04:49.851Z,16.08
2022-10-12T00:07:19.818Z,15.77
2022-10-12T00:09:49.525Z,17.50
2022-10-12T00:12:19.263Z,17.42
2022-10-12T00:14:49.149Z,15.40
2022-10-12T00:17:21.441Z,16.48
2022-10-12T00:19:53.095Z,16.67
2022-10-12T00:22:22.864Z,17.00
2022-10-12T00:24:52.702Z,15.48
2022-10-12T00:27:22.577Z,16.70
2022-10-12T00:29:52.335Z,15.20
2022-10-12T00:32:24.664Z,15.68
2022-10-12T00:34:54.382Z,16.38
2022-10-12T00:37:24.099Z,15.70
2022-10-12T00:39:53.844Z,16.83
2022-10-12T00:42:23.618Z,15.43
2022-10-12T00:44:54.504Z,15.75
2022-10-12T00:47:33.582Z,16.98
2022-10-12T00:50:09.182Z,17.90
2022-10-12T00:52:43.779Z,17.08
2022-10-12T00:55:17.860Z,16.25
2022-10-12T00:57:48.474Z,16.75
2022-10-12T01:00:19.874Z,16.45
2022-10-12T01:02:54.548Z,15.75
2022-10-12T01:05:25.559Z,17.27
2022-10-12T01:07:55.506Z,16.23
2022-10-12T01:10:25.240Z,16.40
2022-10-12T01:12:55.240Z,16.75
2022-10-12T01:15:29.744Z,16.90
2022-10-12T01:18:08.168Z,17.73
2022-10-12T01:20:51.941Z,16.95
2022-10-12T01:24:02.447Z,18.13
2022-10-12T01:27:01.619Z,17.63
2022-10-12T01:30:07.314Z,17.83
2022-10-12T01:32:54.802Z,18.30
2022-10-12T01:35:30.542Z,18.63
2022-10-12T01:38:08.015Z,18.45
2022-10-12T01:40:42.417Z,18.88
2022-10-12T01:45:41.726Z,17.00
2022-10-12T01:48:14.125Z,17.55
2022-10-12T01:50:51.471Z,17.48
2022-10-12T01:53:32.872Z,17.63
2022-10-12T01:56:09.766Z,18.48
2022-10-12T01:58:52.965Z,17.20
2022-10-12T02:01:28.625Z,18.05
2022-10-12T02:04:07.028Z,17.60
2022-10-12T02:06:44.988Z,17.30
2022-10-12T02:09:21.988Z,18.55
2022-10-12T02:11:54.444Z,19.65
2022-10-12T02:14:26.799Z,21.75
2022-10-12T02:17:00.724Z,19.45
2022-10-12T02:19:36.527Z,22.33
2022-10-12T02:22:10.202Z,22.02
2022-10-12T02:24:41.764Z,21.80
2022-10-12T02:27:13.532Z,22.10
2022-10-12T02:29:45.610Z,21.35
2022-10-12T02:32:22.266Z,21.83
2022-10-12T02:34:59.913Z,20.65
2022-10-12T02:37:37.647Z,20.80
2022-10-12T02:40:13.262Z,20.65
2022-10-12T02:43:09.403Z,20.73
2022-10-12T02:45:40.173Z,18.73
2022-10-12T02:48:12.102Z,18.80
2022-10-12T02:50:44.958Z,19.08
2022-10-12T02:53:15.281Z,17.27
2022-10-12T02:55:51.690Z,16.45
2022-10-12T02:58:22.064Z,16.10
2022-10-12T03:00:51.804Z,16.38
2022-10-12T03:03:21.588Z,17.48
2022-10-12T03:05:53.929Z,15.60
2022-10-12T03:08:23.857Z,16.17
2022-10-12T03:10:53.772Z,18.25
2022-10-12T03:13:23.508Z,17.50
2022-10-12T03:15:53.212Z,16.50
2022-10-12T03:18:22.926Z,16.40
2022-10-12T03:20:55.238Z,15.82
2022-10-12T03:23:24.982Z,16.40
2022-10-12T03:25:55.166Z,16.63
2022-10-12T03:28:24.992Z,16.67
2022-10-12T03:30:54.725Z,16.17
2022-10-12T03:33:24.779Z,16.70
2022-10-12T03:35:57.210Z,16.20
2022-10-12T03:38:26.934Z,15.93
2022-10-12T03:40:57.294Z,16.42
2022-10-12T03:43:27.226Z,16.75
2022-10-12T03:45:56.945Z,15.45
2022-10-12T03:48:26.687Z,16.23
2022-10-12T03:50:59.022Z,17.42
2022-10-12T03:53:28.815Z,17.73
2022-10-12T03:55:58.514Z,15.88
2022-10-12T03:58:28.304Z,15.93
2022-10-12T04:00:58.565Z,17.50
2022-10-12T04:03:28.444Z,17.88
2022-10-12T04:06:01.463Z,16.88
2022-10-12T04:08:31.280Z,17.10
2022-10-12T04:11:01.177Z,18.58
2022-10-12T04:13:31.105Z,17.73
2022-10-12T04:16:05.672Z,17.67
2022-10-12T04:18:36.242Z,16.10
2022-10-12T04:21:11.915Z,18.65
2022-10-12T04:23:41.765Z,18.55
2022-10-12T04:26:11.790Z,17.35
2022-10-12T04:28:41.571Z,18.08
2022-10-12T04:31:11.482Z,17.13
2022-10-12T04:33:41.188Z,17.60
2022-10-12T04:36:13.588Z,17.42
2022-10-12T04:38:43.345Z,16.95
2022-10-12T04:41:13.118Z,18.13
2022-10-12T04:43:42.814Z,18.73
2022-10-12T04:46:12.535Z,17.50
2022-10-12T04:48:42.344Z,18.60
2022-10-12T04:51:14.662Z,18.40
2022-10-12T04:53:44.432Z,19.27
2022-10-12T04:56:14.156Z,17.15
2022-10-12T04:58:43.908Z,17.67
2022-10-12T05:01:14.131Z,17.75
2022-10-12T05:03:43.865Z,16.45
2022-10-12T05:06:16.220Z,17.27
2022-10-12T05:08:45.998Z,16.95
2022-10-12T05:11:16.598Z,17.30
2022-10-12T05:13:46.315Z,14.48
2022-10-12T05:16:16.060Z,15.48
2022-10-12T05:18:45.784Z,14.90
2022-10-12T05:21:18.196Z,15.48
2022-10-12T05:23:47.988Z,15.77
2022-10-12T05:26:17.695Z,14.85
2022-10-12T05:28:47.490Z,15.13
2022-10-12T05:31:17.246Z,15.63
2022-10-12T05:33:46.967Z,14.65
2022-10-12T05:36:19.305Z,15.70
2022-10-12T05:38:49.079Z,15.15
2022-10-12T05:41:18.773Z,15.65
2022-10-12T05:43:48.519Z,15.73
2022-10-12T05:46:18.252Z,15.32
2022-10-12T05:48:47.977Z,15.23
2022-10-12T05:51:20.706Z,15.73
2022-10-12T05:53:50.454Z,15.05
2022-10-12T05:56:20.372Z,14.85
2022-10-12T05:58:50.076Z,15.68
2022-10-12T06:01:19.793Z,14.68
2022-10-12T06:03:49.535Z,15.48
2022-10-12T06:06:21.822Z,14.70
2022-10-12T06:08:51.768Z,15.88
2022-10-12T06:11:21.622Z,17.00
2022-10-12T06:13:51.321Z,16.85
2022-10-12T06:16:21.072Z,15.40
2022-10-12T06:18:50.873Z,16.10
2022-10-12T06:21:38.464Z,15.48
2022-10-12T06:24:08.978Z,15.93
2022-10-12T06:26:38.687Z,15.07
2022-10-12T06:29:08.425Z,14.43
2022-10-12T06:31:39.839Z,16.15
2022-10-12T06:34:09.751Z,15.82
2022-10-12T06:36:42.035Z,14.80
2022-10-12T06:39:12.173Z,15.98
2022-10-12T06:41:41.931Z,15.40
2022-10-12T06:44:12.103Z,15.40
2022-10-12T06:46:41.828Z,15.10
2022-10-12T06:49:12.690Z,15.55
2022-10-12T06:51:44.974Z,15.20
2022-10-12T06:54:14.770Z,15.50
2022-10-12T06:56:44.831Z,15.57
2022-10-12T06:59:15.341Z,15.73
2022-10-12T07:01:45.077Z,15.85
2022-10-12T07:04:14.821Z,14.23
2022-10-12T07:06:47.388Z,15.73
2022-10-12T07:09:17.204Z,15.60
2022-10-12T07:11:47.498Z,15.32
2022-10-12T07:14:17.246Z,15.52
2022-10-12T07:16:50.490Z,15.02
2022-10-12T07:19:22.791Z,15.75
2022-10-12T07:21:55.735Z,15.93
2022-10-12T07:24:25.508Z,20.73
2022-10-12T07:26:55.242Z,24.15
2022-10-12T07:29:24.940Z,26.40
2022-10-12T07:31:54.672Z,24.42
2022-10-12T07:34:24.381Z,23.70
2022-10-12T07:36:59.442Z,23.55
2022-10-12T07:39:30.066Z,22.42
2022-10-12T07:41:59.945Z,20.40
2022-10-12T07:44:30.591Z,20.55
2022-10-12T07:47:00.322Z,20.20
2022-10-12T07:49:30.117Z,20.25
2022-10-12T07:52:02.482Z,21.05
2022-10-12T07:54:32.967Z,20.80
2022-10-12T07:57:02.686Z,20.00
2022-10-12T07:59:32.565Z,19.85
2022-10-12T08:02:02.392Z,18.02
2022-10-12T08:04:32.157Z,19.92
2022-10-12T08:07:04.490Z,19.17
2022-10-12T08:09:35.956Z,19.15
2022-10-12T08:12:07.130Z,17.17
2022-10-12T08:14:37.198Z,18.02
2022-10-12T08:17:07.013Z,18.25
2022-10-12T08:19:38.877Z,18.42
2022-10-12T08:22:11.937Z,19.05
2022-10-12T08:24:42.222Z,18.40
2022-10-12T08:27:11.978Z,18.85
2022-10-12T08:29:41.984Z,19.15
2022-10-12T08:32:11.813Z,19.40
2022-10-12T08:34:41.554Z,18.80
2022-10-12T08:37:13.846Z,18.73
2022-10-12T08:39:43.588Z,16.50
2022-10-12T08:42:26.007Z,17.20
2022-10-12T08:45:06.841Z,18.25
2022-10-12T08:47:43.160Z,17.73
2022-10-12T08:50:20.839Z,17.25
2022-10-12T08:53:00.020Z,17.35
2022-10-12T08:55:38.423Z,16.92
2022-10-12T08:58:18.525Z,16.13
2022-10-12T09:00:50.982Z,18.02
2022-10-12T09:03:31.467Z,17.17
2022-10-12T09:06:10.489Z,17.58
2022-10-12T09:08:53.019Z,17.50
2022-10-12T09:11:35.462Z,17.55
2022-10-12T09:14:09.881Z,16.30
2022-10-12T09:19:19.081Z,17.33
2022-10-12T09:21:51.080Z,16.70
2022-10-12T09:24:28.805Z,16.92
2022-10-12T09:27:03.234Z,15.57
2022-10-12T09:29:34.224Z,15.52
2022-10-12T09:32:31.468Z,15.45
2022-10-12T09:35:02.540Z,16.75
2022-10-12T09:37:35.225Z,17.05
2022-10-12T09:40:09.236Z,16.40
2022-10-12T09:42:40.003Z,16.38
2022-10-12T09:45:18.952Z,15.05
2022-10-12T09:48:17.286Z,14.43
2022-10-12T09:50:51.427Z,14.35
2022-10-12T09:53:32.002Z,14.35
2022-10-12T09:56:10.683Z,16.65
2022-10-12T09:58:45.919Z,19.08
2022-10-12T10:01:25.101Z,16.58
2022-10-12T10:04:11.540Z,15.98
2022-10-12T10:06:43.614Z,16.02
2022-10-12T10:09:32.777Z,16.63
2022-10-12T10:12:16.324Z,16.50
2022-10-12T10:14:47.249Z,15.93
2022-10-12T10:17:18.310Z,16.45
2022-10-12T10:19:55.038Z,16.63
2022-10-12T10:22:26.251Z,16.33
2022-10-12T10:25:00.481Z,18.15
2022-10-12T10:27:37.684Z,16.42
2022-10-12T10:30:33.890Z,16.77
2022-10-12T10:33:19.560Z,16.65
2022-10-12T10:35:59.492Z,16.17
2022-10-12T10:38:29.249Z,16.20
2022-10-12T10:41:02.368Z,16.63
2022-10-12T10:43:35.011Z,15.75
2022-10-12T10:46:07.225Z,16.05
2022-10-12T10:48:55.926Z,17.38
2022-10-12T10:51:41.836Z,14.63
2022-10-12T10:54:26.144Z,14.60
2022-10-12T10:57:00.681Z,14.20
2022-10-12T10:59:41.825Z,14.00
2022-10-12T11:02:23.722Z,13.35
2022-10-12T11:04:57.961Z,13.82
2022-10-12T11:10:03.738Z,14.35
2022-10-12T11:12:37.045Z,12.63
2022-10-12T11:15:19.553Z,11.27
2022-10-12T11:17:52.046Z,11.82
2022-10-12T11:20:33.530Z,11.68
2022-10-12T11:23:07.581Z,11.82
2022-10-12T11:25:48.287Z,11.60
2022-10-12T11:28:19.560Z,11.93
2022-10-12T11:30:53.384Z,12.90
2022-10-12T11:33:25.780Z,11.60
2022-10-12T11:35:57.230Z,11.73
2022-10-12T11:38:31.633Z,12.60
2022-10-12T11:41:52.496Z,10.82
2022-10-12T11:44:03.935Z,10.30
2022-10-12T11:46:39.870Z,9.98
2022-10-12T11:49:16.610Z,10.70
2022-10-12T11:51:51.370Z,11.10
2022-10-12T11:54:31.149Z,10.70
2022-10-12T11:57:06.467Z,10.68
2022-10-12T11:59:41.010Z,10.73
2022-10-12T12:02:21.556Z,9.88
2022-10-12T12:04:52.139Z,10.48
2022-10-12T12:07:47.321Z,10.27
2022-10-12T12:11:01.977Z,10.25
2022-10-12T12:13:31.873Z,9.75
2022-10-12T12:16:29.476Z,10.23
2022-10-12T12:19:40.569Z,9.85
2022-10-12T12:22:29.093Z,9.73
2022-10-12T12:25:06.874Z,9.80
2022-10-12T12:27:43.059Z,10.02
2022-10-12T12:30:27.614Z,9.73
2022-10-12T12:32:59.479Z,10.27
2022-10-12T12:35:33.446Z,10.10
2022-10-12T12:38:19.914Z,9.48
2022-10-12T12:41:17.552Z,9.02
2022-10-12T12:43:56.938Z,9.07
2022-10-12T12:46:49.144Z,10.05
2022-10-12T12:49:41.004Z,9.68
2022-10-12T12:52:17.085Z,9.65
2022-10-12T12:55:07.622Z,9.57
2022-10-12T12:58:09.873Z,9.45
2022-10-12T13:00:49.981Z,9.18
2022-10-12T13:03:52.138Z,9.30
2022-10-12T13:06:52.016Z,8.57
2022-10-12T13:09:51.598Z,8.32
2022-10-12T13:12:31.370Z,9.25
2022-10-12T13:15:18.882Z,8.70
2022-10-12T13:18:23.109Z,8.82
2022-10-12T13:21:00.587Z,8.63
2022-10-12T13:23:30.807Z,8.95
2022-10-12T13:26:08.013Z,7.88
2022-10-12T13:28:43.587Z,8.80
2022-10-12T13:31:19.430Z,8.02
2022-10-12T13:33:56.795Z,8.68
2022-10-12T13:36:28.528Z,9.43
2022-10-12T13:38:59.700Z,7.90
2022-10-12T13:41:34.325Z,8.65
2022-10-12T13:44:07.639Z,8.43
2022-10-12T13:46:42.054Z,8.67
2022-10-12T13:49:19.800Z,8.68
2022-10-12T13:51:52.090Z,8.48
2022-10-12T13:54:24.795Z,8.68
2022-10-12T13:57:01.751Z,7.93
2022-10-12T13:59:36.126Z,8.82
2022-10-12T14:02:06.521Z,8.65
2022-10-12T14:04:37.596Z,8.75
2022-10-12T14:07:10.065Z,8.73
2022-10-12T14:09:46.570Z,7.90
2022-10-12T14:12:24.508Z,9.00
2022-10-12T14:14:56.333Z,8.15
2022-10-12T14:17:26.315Z,8.80
2022-10-12T14:19:59.870Z,8.13
2022-10-12T14:22:32.619Z,8.00
2022-10-12T14:25:12.755Z,7.97
2022-10-12T14:27:45.616Z,8.30
2022-10-12T14:30:22.391Z,7.18
2022-10-12T14:32:57.311Z,7.57
2022-10-12T14:35:30.617Z,7.75
2022-10-12T14:38:00.549Z,8.00
2022-10-12T14:40:38.599Z,7.65
2022-10-12T14:43:24.448Z,7.22
2022-10-12T14:45:54.860Z,7.38
2022-10-12T14:48:25.509Z,7.63
2022-10-12T14:50:55.524Z,8.50
2022-10-12T14:53:29.203Z,7.53
2022-10-12T14:55:58.971Z,7.65
2022-10-12T14:58:31.277Z,7.28
2022-10-12T15:01:01.093Z,7.15
2022-10-12T15:03:30.902Z,7.10
2022-10-12T15:06:00.635Z,6.95
2022-10-12T15:08:30.361Z,7.65
2022-10-12T15:11:00.110Z,7.70
2022-10-12T15:13:32.517Z,8.30
2022-10-12T15:16:03.983Z,7.28
2022-10-12T15:18:33.715Z,7.38
2022-10-12T15:21:04.686Z,7.72
2022-10-12T15:23:34.559Z,6.90
2022-10-12T15:26:04.637Z,7.45
2022-10-12T15:28:37.512Z,7.35
2022-10-12T15:31:22.800Z,7.35
2022-10-12T15:33:52.544Z,7.28
2022-10-12T15:36:22.261Z,7.43
2022-10-12T15:38:51.969Z,8.05
2022-10-12T15:41:26.592Z,7.13
2022-10-12T15:43:58.907Z,7.40
2022-10-12T15:46:28.698Z,7.78
2022-10-12T15:48:58.549Z,7.88
2022-10-12T15:51:28.511Z,7.75
2022-10-12T15:53:58.511Z,7.85
2022-10-12T15:56:28.349Z,8.95
2022-10-12T15:59:00.832Z,7.47
2022-10-12T16:01:30.802Z,7.88
2022-10-12T16:04:00.558Z,7.78
2022-10-12T16:06:30.582Z,8.40
2022-10-12T16:09:00.379Z,7.70
2022-10-12T16:11:30.096Z,7.60
2022-10-12T16:14:02.531Z,7.47
2022-10-12T16:16:32.638Z,8.10
2022-10-12T16:19:02.492Z,7.30
2022-10-12T16:21:32.341Z,8.18
2022-10-12T16:24:02.161Z,7.25
2022-10-12T16:26:31.876Z,7.32
2022-10-12T16:29:04.264Z,7.85
2022-10-12T16:31:34.060Z,7.22
2022-10-12T16:34:03.849Z,8.23
2022-10-12T16:36:33.653Z,6.95
2022-10-12T16:39:03.400Z,8.13
2022-10-12T16:41:34.170Z,8.75
2022-10-12T16:44:06.673Z,9.23
2022-10-12T16:46:37.020Z,9.10
2022-10-12T16:49:06.929Z,8.57
2022-10-12T16:51:36.646Z,9.45
2022-10-12T16:54:06.532Z,8.80
2022-10-12T16:56:39.364Z,10.23
2022-10-12T16:59:12.387Z,10.03
2022-10-12T17:01:42.830Z,10.38
2022-10-12T17:04:13.846Z,10.15
2022-10-12T17:06:43.897Z,11.50
2022-10-12T17:09:13.751Z,11.80
2022-10-12T17:11:43.699Z,10.68
2022-10-12T17:14:17.954Z,10.63
2022-10-12T17:16:57.109Z,10.65
2022-10-12T17:19:30.078Z,10.82
2022-10-12T17:22:01.078Z,11.23
2022-10-12T17:24:32.460Z,10.70
2022-10-12T17:27:02.639Z,11.25
2022-10-12T17:29:36.693Z,10.68
2022-10-12T17:32:07.459Z,12.23
2022-10-12T17:34:39.596Z,11.70
2022-10-12T17:37:11.566Z,11.77
2022-10-12T17:39:43.506Z,12.80
2022-10-12T17:42:14.819Z,12.35
2022-10-12T17:44:47.267Z,12.13
2022-10-12T17:47:17.419Z,13.50
2022-10-12T17:49:47.327Z,11.88
2022-10-12T17:52:17.492Z,12.70
2022-10-12T17:54:47.486Z,13.18
2022-10-12T17:57:17.563Z,12.73
2022-10-12T17:59:50.141Z,13.13
2022-10-12T18:02:20.249Z,12.27
2022-10-12T18:04:49.979Z,13.60
2022-10-12T18:07:20.229Z,13.63
2022-10-12T18:09:50.331Z,12.60
2022-10-12T18:12:20.310Z,13.07
2022-10-12T18:14:52.676Z,12.73
2022-10-12T18:17:22.489Z,13.35
2022-10-12T18:19:52.253Z,14.50
2022-10-12T18:22:22.478Z,13.27
2022-10-12T18:24:52.576Z,13.98
2022-10-12T18:27:22.319Z,13.55
2022-10-12T18:29:56.211Z,12.13
2022-10-12T18:32:25.953Z,12.98
2022-10-12T18:34:55.803Z,13.70
2022-10-12T18:37:25.522Z,14.00
2022-10-12T18:39:55.255Z,13.63
2022-10-12T18:42:24.995Z,13.32
2022-10-12T18:44:57.356Z,13.52
2022-10-12T18:47:27.126Z,13.10
2022-10-12T18:49:56.884Z,14.50
2022-10-12T18:52:26.650Z,13.45
2022-10-12T18:54:56.389Z,14.20
2022-10-12T18:57:30.846Z,14.13
2022-10-12T19:00:04.814Z,14.48
2022-10-12T19:02:35.735Z,13.50
2022-10-12T19:05:06.217Z,14.23
2022-10-12T19:07:37.790Z,13.93
2022-10-12T19:10:09.499Z,14.88
2022-10-12T19:12:43.351Z,14.75
2022-10-12T19:15:17.375Z,14.73
2022-10-12T19:17:47.145Z,15.10
2022-10-12T19:20:16.921Z,13.98
2022-10-12T19:22:46.822Z,14.32
2022-10-12T19:25:16.610Z,15.30
2022-10-12T19:27:46.405Z,15.15
2022-10-12T19:30:18.960Z,15.18
2022-10-12T19:32:49.554Z,15.27
2022-10-12T19:35:20.488Z,15.95
2022-10-12T19:37:50.209Z,16.38
2022-10-12T19:40:20.036Z,16.15
2022-10-12T19:42:50.669Z,15.88
2022-10-12T19:45:23.052Z,15.60
2022-10-12T19:47:52.809Z,15.55
2022-10-12T19:50:22.610Z,16.30
2022-10-12T19:52:52.323Z,16.33
2022-10-12T19:55:22.067Z,17.30
2022-10-12T19:57:51.911Z,15.57
2022-10-12T20:00:24.609Z,15.73
2022-10-12T20:02:54.356Z,15.57
2022-10-12T20:05:24.601Z,15.98
2022-10-12T20:07:54.459Z,15.20
2022-10-12T20:10:24.713Z,15.30
2022-10-12T20:12:54.559Z,15.35
2022-10-12T20:15:26.931Z,15.63
2022-10-12T20:17:56.661Z,15.98
2022-10-12T20:20:26.456Z,15.80
2022-10-12T20:22:56.257Z,15.18
2022-10-12T20:25:26.069Z,15.60
2022-10-12T20:27:55.813Z,16.52
2022-10-12T20:30:28.155Z,16.85
2022-10-12T20:32:58.039Z,17.00
2022-10-12T20:35:27.837Z,17.67
2022-10-12T20:37:57.662Z,18.08
2022-10-12T20:40:27.566Z,18.60
2022-10-12T20:42:57.687Z,19.58
2022-10-12T20:45:30.035Z,20.33
2022-10-12T20:47:59.788Z,20.20
2022-10-12T20:50:29.644Z,20.63
2022-10-12T20:52:59.428Z,19.55
2022-10-12T20:55:29.282Z,19.40
2022-10-12T20:57:59.003Z,18.90
2022-10-12T21:00:31.476Z,19.45
2022-10-12T21:03:01.216Z,20.10
2022-10-12T21:05:30.967Z,20.15
2022-10-12T21:08:00.689Z,19.35
2022-10-12T21:10:30.667Z,21.30
2022-10-12T21:13:00.448Z,19.90
2022-10-12T21:15:32.791Z,20.00
2022-10-12T21:18:02.545Z,20.77
2022-10-12T21:20:32.281Z,20.63
2022-10-12T21:23:02.114Z,20.55
2022-10-12T21:25:31.863Z,20.42
2022-10-12T21:28:01.573Z,19.80
2022-10-12T21:30:33.878Z,19.95
2022-10-12T21:33:03.619Z,20.92
2022-10-12T21:35:33.395Z,20.45
2022-10-12T21:38:03.661Z,20.48
2022-10-12T21:40:34.786Z,22.52
2022-10-12T21:43:04.568Z,22.10
2022-10-12T21:45:37.024Z,24.08
2022-10-12T21:48:07.129Z,22.55
2022-10-12T21:50:36.958Z,21.77
2022-10-12T21:53:06.695Z,21.00
2022-10-12T21:55:36.523Z,20.85
2022-10-12T21:58:06.261Z,21.65
2022-10-12T22:00:38.680Z,20.67
2022-10-12T22:03:08.570Z,20.48
2022-10-12T22:05:41.977Z,20.63
2022-10-12T22:08:12.513Z,21.10
2022-10-12T22:10:42.780Z,20.27
2022-10-12T22:13:12.517Z,21.38
2022-10-12T22:15:44.845Z,19.85
2022-10-12T22:18:15.589Z,19.75
2022-10-12T22:20:45.363Z,20.25
2022-10-12T22:23:15.178Z,19.02
2022-10-12T22:25:44.905Z,19.38
2022-10-12T22:28:14.648Z,19.85
2022-10-12T22:30:47.017Z,20.45
2022-10-12T22:33:16.775Z,19.15
2022-10-12T22:35:55.519Z,18.85
2022-10-12T22:38:25.427Z,18.90
2022-10-12T22:40:58.831Z,18.40
2022-10-12T22:43:30.093Z,18.25
2022-10-12T22:46:02.756Z,17.60
2022-10-12T22:48:32.762Z,19.23
2022-10-12T22:51:02.507Z,19.23
2022-10-12T22:53:32.564Z,17.65
2022-10-12T22:56:03.735Z,18.65
2022-10-12T22:58:33.806Z,18.77
2022-10-12T23:01:09.757Z,17.92
2022-10-12T23:03:40.175Z,18.05
2022-10-12T23:06:10.977Z,17.92
2022-10-12T23:08:40.783Z,18.33
2022-10-12T23:11:12.171Z,18.48
2022-10-12T23:13:43.034Z,16.83
2022-10-12T23:16:20.423Z,18.02
2022-10-12T23:21:20.527Z,16.52
2022-10-12T23:23:50.578Z,17.73
2022-10-12T23:26:22.354Z,17.52
2022-10-12T23:28:52.641Z,16.38
2022-10-12T23:31:28.047Z,17.02
2022-10-12T23:33:58.411Z,18.10
2022-10-12T23:36:28.654Z,17.38
2022-10-12T23:38:58.594Z,17.30
2022-10-12T23:41:28.410Z,17.40
2022-10-12T23:43:58.160Z,16.75
2022-10-12T23:46:30.638Z,18.90
2022-10-12T23:49:00.515Z,19.45
2022-10-12T23:51:30.363Z,17.77
2022-10-12T23:54:00.175Z,18.90
2022-10-12T23:56:30.091Z,19.05
2022-10-12T23:59:00.611Z,17.88
